Sawtry, United Kingdom
Current Conditions -  °F | °C
As of 8:50 AM on Wednesday 28 Jan 2015 (Local Time) from EGXT Reporting Station
Drizzle Drizzle  
Wind Chill: 41°   Ceiling: 1200
Heat Index: 48°   Visibility: 4mi
Dew Point: 45°   Wind: 22mph
Humidity: 87%   Direction: 210°SSW
Pressure: 29.47"   Gusts: NA
Location:  52.44°N, 0.28°W
Report Text: EGXT 280850Z 21019KT 7000 DZ BKN012 09/07 Q0998 GRN
Loading
Personal Weather Stations






























Interactive Weather Map New forecast layout! Learn more

10-Day Weather Forecast

Advertisements
Track Severe Weather on mobile